createdAt,value
2023-02-19T00:00:10.106Z,79.96
2023-02-19T00:01:42.582Z,80.23
2023-02-19T00:03:17.645Z,80.70
2023-02-19T00:04:49.611Z,80.16
2023-02-19T00:06:21.750Z,80.53
2023-02-19T00:07:55.765Z,80.05
2023-02-19T00:09:27.678Z,80.25
2023-02-19T00:11:02.707Z,79.79
2023-02-19T00:12:35.856Z,80.38
2023-02-19T00:14:09.187Z,80.00
2023-02-19T00:15:40.809Z,79.81
2023-02-19T00:17:12.423Z,80.03
2023-02-19T00:18:44.215Z,80.32
2023-02-19T00:20:16.100Z,80.11
2023-02-19T00:21:47.835Z,80.26
2023-02-19T00:23:19.436Z,80.11
2023-02-19T00:24:51.143Z,80.18
2023-02-19T00:26:22.837Z,80.15
2023-02-19T00:27:56.101Z,80.65
2023-02-19T00:29:27.809Z,80.35
2023-02-19T00:31:04.628Z,80.53
2023-02-19T00:32:36.409Z,80.12
2023-02-19T00:34:08.190Z,80.55
2023-02-19T00:35:42.986Z,80.21
2023-02-19T00:37:14.643Z,80.16
2023-02-19T00:38:46.438Z,80.53
2023-02-19T00:40:18.210Z,80.43
2023-02-19T00:41:53.176Z,80.86
2023-02-19T00:43:28.909Z,80.70
2023-02-19T00:45:00.647Z,80.71
2023-02-19T00:46:33.168Z,80.40
2023-02-19T00:48:05.069Z,80.17
2023-02-19T00:49:43.810Z,80.14
2023-02-19T00:51:16.019Z,80.30
2023-02-19T00:52:47.904Z,80.14
2023-02-19T00:54:19.678Z,80.37
2023-02-19T00:55:51.311Z,80.83
2023-02-19T00:57:22.920Z,80.73
2023-02-19T00:58:55.934Z,80.42
2023-02-19T01:00:27.496Z,80.28
2023-02-19T01:01:59.147Z,80.60
2023-02-19T01:03:30.968Z,80.72
2023-02-19T01:05:02.614Z,80.63
2023-02-19T01:06:35.288Z,80.55
2023-02-19T01:08:06.970Z,80.24
2023-02-19T01:09:38.570Z,80.49
2023-02-19T01:11:10.584Z,80.73
2023-02-19T01:12:42.514Z,80.55
2023-02-19T01:14:15.549Z,80.04
2023-02-19T01:15:47.321Z,80.46
2023-02-19T01:17:19.098Z,80.85
2023-02-19T01:18:50.777Z,80.50
2023-02-19T01:20:22.466Z,80.23
2023-02-19T01:21:54.091Z,80.39
2023-02-19T01:23:25.722Z,80.16
2023-02-19T01:24:57.333Z,80.26
2023-02-19T01:26:29.918Z,80.27
2023-02-19T01:28:01.522Z,80.39
2023-02-19T01:29:34.514Z,80.17
2023-02-19T01:31:07.167Z,80.45
2023-02-19T01:32:38.949Z,80.75
2023-02-19T01:34:10.996Z,80.11
2023-02-19T01:35:42.604Z,80.09
2023-02-19T01:37:14.424Z,79.93
2023-02-19T01:38:46.207Z,80.39
2023-02-19T01:40:17.946Z,80.19
2023-02-19T01:41:49.569Z,80.30
2023-02-19T01:43:21.255Z,80.38
2023-02-19T01:45:22.937Z,81.07
2023-02-19T01:46:57.591Z,80.86
2023-02-19T01:48:30.919Z,81.01
2023-02-19T01:50:02.666Z,80.84
2023-02-19T01:51:34.896Z,81.18
2023-02-19T01:53:07.095Z,81.21
2023-02-19T01:54:39.445Z,81.01
2023-02-19T01:56:11.086Z,80.81
2023-02-19T01:57:44.852Z,81.19
2023-02-19T01:59:16.699Z,81.60
2023-02-19T02:00:51.766Z,81.37
2023-02-19T02:02:29.557Z,81.42
2023-02-19T02:04:01.387Z,81.25
2023-02-19T02:05:45.822Z,81.58
2023-02-19T02:07:36.009Z,81.43
2023-02-19T02:09:29.123Z,81.38
2023-02-19T02:11:01.028Z,81.60
2023-02-19T02:12:32.882Z,81.62
2023-02-19T02:14:04.744Z,81.40
2023-02-19T02:15:40.512Z,81.58
2023-02-19T02:17:16.479Z,82.00
2023-02-19T02:18:54.222Z,82.17
2023-02-19T02:20:32.329Z,81.96
2023-02-19T02:22:07.841Z,82.26
2023-02-19T02:23:44.871Z,82.27
2023-02-19T02:25:27.885Z,81.61
2023-02-19T02:27:07.174Z,81.38
2023-02-19T02:29:10.762Z,81.42
2023-02-19T02:30:44.621Z,81.77
2023-02-19T02:32:17.158Z,81.58
2023-02-19T02:33:51.984Z,81.57
2023-02-19T02:35:25.745Z,82.06
2023-02-19T02:36:57.405Z,81.64
2023-02-19T02:38:29.895Z,81.64
2023-02-19T02:40:01.847Z,81.71
2023-02-19T02:41:33.589Z,81.49
2023-02-19T02:43:05.281Z,82.01
2023-02-19T02:44:36.942Z,81.08
2023-02-19T02:46:11.651Z,81.82
2023-02-19T02:47:45.061Z,81.83
2023-02-19T02:49:19.089Z,81.86
2023-02-19T02:50:58.561Z,82.11
2023-02-19T02:52:48.567Z,82.03
2023-02-19T02:54:39.784Z,81.45
2023-02-19T02:56:11.515Z,81.24
2023-02-19T02:57:43.158Z,82.12
2023-02-19T02:59:15.686Z,81.80
2023-02-19T03:01:07.657Z,81.14
2023-02-19T03:02:40.783Z,81.42
2023-02-19T03:04:14.207Z,82.23
2023-02-19T03:05:51.732Z,81.96
2023-02-19T03:07:23.334Z,82.32
2023-02-19T03:08:56.486Z,83.14
2023-02-19T03:10:30.890Z,82.52
2023-02-19T03:12:21.447Z,82.83
2023-02-19T03:14:12.516Z,82.35
2023-02-19T03:16:03.944Z,82.01
2023-02-19T03:17:56.548Z,82.48
2023-02-19T03:19:29.585Z,82.79
2023-02-19T03:21:01.166Z,82.11
2023-02-19T03:22:33.945Z,81.72
2023-02-19T03:24:24.840Z,81.37
2023-02-19T03:26:05.601Z,81.45
2023-02-19T03:27:37.833Z,81.07
2023-02-19T03:29:25.895Z,81.13
2023-02-19T03:30:57.969Z,81.12
2023-02-19T03:32:31.263Z,81.62
2023-02-19T03:34:05.223Z,81.10
2023-02-19T03:35:40.261Z,81.47
2023-02-19T03:37:13.748Z,82.14
2023-02-19T03:38:48.283Z,82.20
2023-02-19T03:40:20.119Z,82.57
2023-02-19T03:41:56.342Z,82.89
2023-02-19T03:43:34.743Z,83.56
2023-02-19T03:45:24.624Z,83.88
2023-02-19T03:46:58.134Z,83.84
2023-02-19T03:48:32.237Z,84.46
2023-02-19T03:50:07.541Z,84.38
2023-02-19T03:51:42.172Z,84.01
2023-02-19T03:53:16.443Z,84.20
2023-02-19T03:54:50.953Z,84.24
2023-02-19T03:56:26.297Z,83.85
2023-02-19T03:57:59.269Z,84.11
2023-02-19T03:59:33.185Z,84.07
2023-02-19T04:01:05.903Z,83.88
2023-02-19T04:02:39.606Z,83.89
2023-02-19T04:04:19.343Z,83.87
2023-02-19T04:06:07.454Z,83.78
2023-02-19T04:07:52.328Z,84.07
2023-02-19T04:09:36.861Z,84.27
2023-02-19T04:11:18.768Z,84.18
2023-02-19T04:12:54.540Z,84.18
2023-02-19T04:14:31.394Z,84.27
2023-02-19T04:16:10.259Z,84.39
2023-02-19T04:17:52.305Z,84.48
2023-02-19T04:21:21.350Z,84.68
2023-02-19T04:22:57.344Z,84.58
2023-02-19T04:24:31.468Z,84.09
2023-02-19T04:26:08.045Z,84.16
2023-02-19T04:27:44.857Z,84.68
2023-02-19T04:29:16.692Z,85.34
2023-02-19T04:30:48.514Z,84.84
2023-02-19T04:32:20.371Z,85.54
2023-02-19T04:33:52.151Z,85.53
2023-02-19T04:35:23.829Z,85.17
2023-02-19T04:36:55.823Z,85.77
2023-02-19T04:38:29.146Z,86.27
2023-02-19T04:40:09.363Z,86.33
2023-02-19T04:41:43.311Z,86.73
2023-02-19T04:43:25.345Z,86.33
2023-02-19T04:45:44.082Z,87.03
2023-02-19T04:46:52.363Z,86.44
2023-02-19T04:48:24.083Z,86.14
2023-02-19T04:49:55.801Z,86.28
2023-02-19T04:51:27.654Z,85.73
2023-02-19T04:52:59.513Z,86.26
2023-02-19T04:54:32.655Z,85.16
2023-02-19T04:56:08.109Z,86.17
2023-02-19T04:57:39.855Z,85.98
2023-02-19T04:59:12.513Z,86.37
2023-02-19T05:00:44.280Z,85.74
2023-02-19T05:02:16.305Z,86.42
2023-02-19T05:03:48.294Z,85.90
2023-02-19T05:05:19.943Z,86.06
2023-02-19T05:06:51.680Z,85.38
2023-02-19T05:08:23.543Z,86.28
2023-02-19T05:09:56.806Z,86.10
2023-02-19T05:11:28.562Z,86.13
2023-02-19T05:13:00.312Z,86.10
2023-02-19T05:14:32.096Z,85.99
2023-02-19T05:16:04.897Z,86.47
2023-02-19T05:17:36.910Z,86.06
2023-02-19T05:19:10.633Z,86.23
2023-02-19T05:20:42.398Z,86.12
2023-02-19T05:22:14.165Z,85.93
2023-02-19T05:23:45.963Z,85.55
2023-02-19T05:25:22.737Z,85.93
2023-02-19T05:27:01.357Z,85.57
2023-02-19T05:28:33.061Z,86.13
2023-02-19T05:30:05.138Z,85.78
2023-02-19T05:31:36.938Z,85.37
2023-02-19T05:33:08.528Z,86.27
2023-02-19T05:34:40.103Z,86.08
2023-02-19T05:36:12.644Z,86.71
2023-02-19T05:37:44.252Z,86.36
2023-02-19T05:39:15.897Z,85.78
2023-02-19T05:40:48.948Z,86.31
2023-02-19T05:42:20.587Z,86.06
2023-02-19T05:43:52.313Z,86.95
2023-02-19T05:45:23.903Z,85.92
2023-02-19T05:46:55.541Z,85.70
2023-02-19T05:48:27.238Z,85.89
2023-02-19T05:49:58.845Z,85.97
2023-02-19T05:51:30.950Z,85.92
2023-02-19T05:53:02.873Z,85.85
2023-02-19T05:54:34.554Z,85.91
2023-02-19T05:56:27.642Z,85.27
2023-02-19T05:57:59.265Z,85.43
2023-02-19T05:59:31.637Z,85.55
2023-02-19T06:01:03.280Z,85.55
2023-02-19T06:02:35.048Z,85.15
2023-02-19T06:04:06.792Z,85.25
2023-02-19T06:05:38.402Z,85.44
2023-02-19T06:07:10.037Z,85.46
2023-02-19T06:08:41.741Z,84.47
2023-02-19T06:10:13.459Z,84.82
2023-02-19T06:11:46.551Z,84.48
2023-02-19T06:13:18.159Z,84.99
2023-02-19T06:14:49.820Z,84.70
2023-02-19T06:16:22.181Z,84.55
2023-02-19T06:17:54.169Z,84.91
2023-02-19T06:19:25.852Z,84.78
2023-02-19T06:21:00.872Z,85.08
2023-02-19T06:22:32.506Z,85.23
2023-02-19T06:24:06.051Z,85.03
2023-02-19T06:25:38.127Z,85.42
2023-02-19T06:27:11.117Z,85.34
2023-02-19T06:28:42.833Z,85.34
2023-02-19T06:30:14.539Z,85.46
2023-02-19T06:31:46.331Z,85.31
2023-02-19T06:33:18.106Z,85.19
2023-02-19T06:34:49.713Z,85.10
2023-02-19T06:36:21.537Z,85.12
2023-02-19T06:37:53.174Z,85.66
2023-02-19T06:39:24.884Z,85.15
2023-02-19T06:41:00.442Z,85.62
2023-02-19T06:42:33.560Z,85.49
2023-02-19T06:44:05.405Z,85.42
2023-02-19T06:45:37.173Z,85.80
2023-02-19T06:47:08.901Z,86.25
2023-02-19T06:48:41.168Z,85.99
2023-02-19T06:50:12.878Z,86.12
2023-02-19T06:51:44.567Z,86.05
2023-02-19T06:53:16.309Z,86.09
2023-02-19T06:54:47.968Z,86.13
2023-02-19T06:56:25.192Z,85.94
2023-02-19T06:57:58.257Z,86.28
2023-02-19T06:59:29.915Z,86.50
2023-02-19T07:01:01.651Z,86.97
2023-02-19T07:02:33.442Z,86.69
2023-02-19T07:04:05.575Z,86.86
2023-02-19T07:05:37.351Z,86.77
2023-02-19T07:07:10.824Z,86.73
2023-02-19T07:08:42.476Z,86.50
2023-02-19T07:10:14.146Z,86.64
2023-02-19T07:11:46.288Z,86.53
2023-02-19T07:13:19.285Z,86.47
2023-02-19T07:14:50.910Z,86.75
2023-02-19T07:16:22.944Z,86.73
2023-02-19T07:17:54.643Z,86.75
2023-02-19T07:19:26.300Z,87.70
2023-02-19T07:21:02.548Z,87.29
2023-02-19T07:22:34.264Z,87.11
2023-02-19T07:24:06.510Z,86.66
2023-02-19T07:25:38.852Z,86.46
2023-02-19T07:27:10.570Z,86.68
2023-02-19T07:28:43.798Z,87.06
2023-02-19T07:30:15.597Z,86.46
2023-02-19T07:31:47.572Z,86.32
2023-02-19T07:33:19.277Z,86.33
2023-02-19T07:34:50.968Z,86.69
2023-02-19T07:36:23.031Z,86.86
2023-02-19T07:37:54.690Z,86.29
2023-02-19T07:39:26.649Z,86.65
2023-02-19T07:40:59.002Z,86.30
2023-02-19T07:42:30.651Z,86.76
2023-02-19T07:44:04.026Z,86.41
2023-02-19T07:45:35.871Z,86.39
2023-02-19T07:47:07.547Z,86.31
2023-02-19T07:48:39.810Z,86.30
2023-02-19T07:50:13.751Z,86.49
2023-02-19T07:51:45.699Z,85.90
2023-02-19T07:53:17.294Z,85.81
2023-02-19T07:54:48.892Z,85.45
2023-02-19T07:56:20.931Z,85.75
2023-02-19T07:57:52.653Z,85.67
2023-02-19T07:59:25.705Z,85.59
2023-02-19T08:00:57.589Z,85.47
2023-02-19T08:02:47.772Z,85.40
2023-02-19T08:04:19.367Z,85.33
2023-02-19T08:05:53.687Z,85.33
2023-02-19T08:07:25.385Z,85.11
2023-02-19T08:08:57.922Z,84.67
2023-02-19T08:10:47.944Z,84.50
2023-02-19T08:12:38.376Z,84.26
2023-02-19T08:14:09.943Z,84.58
2023-02-19T08:15:43.055Z,83.70
2023-02-19T08:17:14.660Z,84.20
2023-02-19T08:18:46.540Z,83.85
2023-02-19T08:20:18.187Z,83.78
2023-02-19T08:21:50.673Z,83.71
2023-02-19T08:23:22.340Z,83.62
2023-02-19T08:24:54.012Z,83.74
2023-02-19T08:26:25.774Z,83.63
2023-02-19T08:27:57.427Z,83.37
2023-02-19T08:29:29.298Z,83.67
2023-02-19T08:31:04.229Z,83.59
2023-02-19T08:32:35.999Z,83.37
2023-02-19T08:34:07.652Z,83.79
2023-02-19T08:35:39.599Z,83.16
2023-02-19T08:37:11.319Z,83.60
2023-02-19T08:38:43.038Z,83.60
2023-02-19T08:40:14.761Z,83.74
2023-02-19T08:41:46.550Z,83.72
2023-02-19T08:43:21.650Z,83.43
2023-02-19T08:44:53.428Z,83.93
2023-02-19T08:46:26.684Z,83.77
2023-02-19T08:47:58.447Z,83.27
2023-02-19T08:49:30.221Z,83.58
2023-02-19T08:51:07.106Z,83.85
2023-02-19T08:52:38.744Z,83.45
2023-02-19T08:54:11.068Z,83.68
2023-02-19T08:55:42.803Z,84.01
2023-02-19T08:57:14.594Z,83.50
2023-02-19T08:58:46.355Z,83.44
2023-02-19T09:00:18.115Z,83.79
2023-02-19T09:01:52.670Z,83.54
2023-02-19T09:03:24.516Z,83.59
2023-02-19T09:04:56.156Z,83.66
2023-02-19T09:06:27.817Z,83.91
2023-02-19T09:07:59.621Z,83.65
2023-02-19T09:09:32.972Z,83.75
2023-02-19T09:11:07.414Z,83.26
2023-02-19T09:12:40.193Z,83.19
2023-02-19T09:14:11.890Z,83.74
2023-02-19T09:15:43.637Z,83.55
2023-02-19T09:17:16.642Z,83.39
2023-02-19T09:18:48.287Z,83.66
2023-02-19T09:20:19.951Z,83.85
2023-02-19T09:21:51.701Z,83.72
2023-02-19T09:23:23.405Z,83.72
2023-02-19T09:24:55.097Z,83.50
2023-02-19T09:26:26.825Z,83.71
2023-02-19T09:27:58.642Z,83.31
2023-02-19T09:29:30.400Z,84.10
2023-02-19T09:31:04.170Z,83.42
2023-02-19T09:32:37.223Z,83.79
2023-02-19T09:34:08.891Z,83.52
2023-02-19T09:35:40.739Z,83.24
2023-02-19T09:37:12.470Z,83.31
2023-02-19T09:38:44.306Z,83.30
2023-02-19T09:40:21.452Z,83.27
2023-02-19T09:41:53.826Z,83.16
2023-02-19T09:43:26.505Z,83.37
2023-02-19T09:45:01.798Z,83.44
2023-02-19T09:46:34.975Z,82.61
2023-02-19T09:48:10.393Z,82.68
2023-02-19T09:49:43.576Z,82.63
2023-02-19T09:51:15.352Z,83.13
2023-02-19T09:52:48.927Z,82.55
2023-02-19T09:54:22.034Z,81.96
2023-02-19T09:55:53.908Z,82.06
2023-02-19T09:57:26.098Z,82.46
2023-02-19T09:59:00.771Z,82.19
2023-02-19T10:00:33.468Z,82.86
2023-02-19T10:02:12.532Z,82.48
2023-02-19T10:03:50.549Z,81.83
2023-02-19T10:05:24.556Z,81.89
2023-02-19T10:07:00.948Z,82.45
2023-02-19T10:08:47.427Z,81.76
2023-02-19T10:10:27.860Z,81.99
2023-02-19T10:12:04.959Z,81.30
2023-02-19T10:13:37.776Z,81.10
2023-02-19T10:15:14.485Z,81.15
2023-02-19T10:16:49.204Z,80.93
2023-02-19T10:18:22.830Z,81.51
2023-02-19T10:19:56.366Z,81.38
2023-02-19T10:21:28.588Z,81.19
2023-02-19T10:23:01.588Z,80.84
2023-02-19T10:24:33.392Z,80.97
2023-02-19T10:26:05.372Z,81.59
2023-02-19T10:27:37.115Z,81.37
2023-02-19T10:29:09.724Z,81.06
2023-02-19T10:30:41.545Z,81.31
2023-02-19T10:32:14.903Z,81.30
2023-02-19T10:33:50.461Z,80.56
2023-02-19T10:35:31.528Z,80.63
2023-02-19T10:37:36.327Z,81.05
2023-02-19T10:39:30.558Z,81.04
2023-02-19T10:41:05.755Z,80.62
2023-02-19T10:42:39.669Z,80.76
2023-02-19T10:44:18.342Z,80.47
2023-02-19T10:45:56.423Z,80.06
2023-02-19T10:47:29.600Z,80.18
2023-02-19T10:49:02.291Z,80.16
2023-02-19T10:50:39.305Z,79.89
2023-02-19T10:52:17.644Z,79.75
2023-02-19T10:53:50.247Z,80.33
2023-02-19T10:55:26.703Z,79.43
2023-02-19T10:57:15.691Z,80.46
2023-02-19T10:58:47.722Z,80.33
2023-02-19T11:00:25.171Z,79.99
2023-02-19T11:01:57.654Z,80.01
2023-02-19T11:03:30.847Z,80.42
2023-02-19T11:05:05.674Z,79.58
2023-02-19T11:06:38.732Z,79.54
2023-02-19T11:08:19.874Z,80.16
2023-02-19T11:09:54.105Z,78.63
2023-02-19T11:11:28.742Z,78.91
2023-02-19T11:13:09.579Z,78.50
2023-02-19T11:14:42.139Z,78.64
2023-02-19T11:16:16.592Z,78.71
2023-02-19T11:18:03.112Z,78.64
2023-02-19T11:19:36.902Z,78.09
2023-02-19T11:21:23.232Z,78.56
2023-02-19T11:22:58.215Z,78.06
2023-02-19T11:24:37.592Z,77.78
2023-02-19T11:26:16.848Z,77.14
2023-02-19T11:27:59.502Z,76.59
2023-02-19T11:29:34.829Z,75.99
2023-02-19T11:31:23.115Z,76.45
2023-02-19T11:32:55.040Z,76.15
2023-02-19T11:34:33.164Z,76.77
2023-02-19T11:36:24.284Z,75.78
2023-02-19T11:37:58.572Z,75.46
2023-02-19T11:39:30.945Z,76.42
2023-02-19T11:41:04.929Z,75.79
2023-02-19T11:42:41.149Z,75.22
2023-02-19T11:44:19.199Z,75.71
2023-02-19T11:45:52.767Z,74.38
2023-02-19T11:47:39.418Z,75.31
2023-02-19T11:49:17.771Z,74.70
2023-02-19T11:50:54.594Z,73.62
2023-02-19T11:52:29.445Z,73.83
2023-02-19T11:54:17.963Z,73.50
2023-02-19T11:55:54.778Z,73.40
2023-02-19T11:57:35.948Z,72.38
2023-02-19T11:59:09.877Z,72.55
2023-02-19T12:00:43.297Z,72.62
2023-02-19T12:02:48.309Z,72.38
2023-02-19T12:04:57.165Z,72.68
2023-02-19T12:06:30.060Z,71.21
2023-02-19T12:08:30.693Z,72.40
2023-02-19T12:10:17.100Z,71.33
2023-02-19T12:12:04.775Z,71.91
2023-02-19T12:13:59.572Z,71.62
2023-02-19T12:15:35.311Z,71.29
2023-02-19T12:17:08.746Z,71.84
2023-02-19T12:19:09.594Z,71.17
2023-02-19T12:20:49.039Z,72.17
2023-02-19T12:22:33.321Z,71.77
2023-02-19T12:25:00.182Z,71.27
2023-02-19T12:27:01.174Z,71.27
2023-02-19T12:29:21.741Z,70.92
2023-02-19T12:31:28.756Z,71.57
2023-02-19T12:33:37.507Z,71.54
2023-02-19T12:36:00.950Z,70.03
2023-02-19T12:38:17.273Z,70.30
2023-02-19T12:40:48.231Z,70.09
2023-02-19T12:42:42.332Z,69.32
2023-02-19T12:44:17.288Z,69.33
2023-02-19T12:45:52.343Z,70.16
2023-02-19T12:47:28.642Z,70.44
2023-02-19T12:49:03.653Z,69.12
2023-02-19T12:50:35.402Z,69.44
2023-02-19T12:52:08.271Z,69.01
2023-02-19T12:53:41.914Z,70.42
2023-02-19T12:55:19.465Z,70.60
2023-02-19T12:56:53.907Z,69.83
2023-02-19T12:58:30.458Z,70.45
2023-02-19T13:00:07.566Z,71.25
2023-02-19T13:01:41.860Z,70.77
2023-02-19T13:03:20.770Z,72.08
2023-02-19T13:04:56.007Z,71.04
2023-02-19T13:06:33.538Z,70.93
2023-02-19T13:08:06.996Z,70.15
2023-02-19T13:09:45.407Z,69.75
2023-02-19T13:11:19.586Z,68.86
2023-02-19T13:12:51.760Z,69.42
2023-02-19T13:14:27.600Z,67.51
2023-02-19T13:16:01.096Z,68.41
2023-02-19T13:17:40.441Z,68.47
2023-02-19T13:19:15.169Z,68.93
2023-02-19T13:20:47.864Z,69.29
2023-02-19T13:22:41.081Z,68.79
2023-02-19T13:24:15.200Z,68.89
2023-02-19T13:25:58.719Z,69.00
2023-02-19T13:27:41.732Z,70.40
2023-02-19T13:29:20.260Z,70.11
2023-02-19T13:31:11.261Z,70.58
2023-02-19T13:32:52.583Z,70.55
2023-02-19T13:34:35.919Z,70.51
2023-02-19T13:36:12.179Z,70.10
2023-02-19T13:37:43.900Z,70.35
2023-02-19T13:39:22.111Z,69.47
2023-02-19T13:40:56.005Z,67.19
2023-02-19T13:42:32.723Z,67.33
2023-02-19T13:44:06.025Z,65.93
2023-02-19T13:45:39.558Z,65.25
2023-02-19T13:47:44.316Z,67.26
2023-02-19T13:49:38.380Z,65.25
2023-02-19T13:51:38.495Z,64.54
2023-02-19T13:53:53.920Z,64.90
2023-02-19T13:55:52.513Z,61.77
2023-02-19T13:57:26.643Z,62.77
2023-02-19T13:59:00.872Z,62.36
2023-02-19T14:00:49.441Z,60.54
2023-02-19T14:02:31.378Z,61.21
2023-02-19T14:04:07.755Z,61.24
2023-02-19T14:06:00.305Z,60.02
2023-02-19T14:07:51.089Z,59.33
2023-02-19T14:09:46.636Z,60.25
2023-02-19T14:11:18.750Z,62.53
2023-02-19T14:12:50.521Z,62.67
2023-02-19T14:14:26.468Z,62.40
2023-02-19T14:15:58.295Z,62.64
2023-02-19T14:17:38.370Z,62.55
2023-02-19T14:19:13.551Z,65.13
2023-02-19T14:20:56.765Z,65.79
2023-02-19T14:23:05.154Z,64.69
2023-02-19T14:24:38.455Z,62.81
2023-02-19T14:26:10.504Z,61.63
2023-02-19T14:27:48.225Z,60.88
2023-02-19T14:29:25.071Z,60.85
2023-02-19T14:30:57.818Z,60.01
2023-02-19T14:32:34.185Z,62.00
2023-02-19T14:34:07.103Z,63.42
2023-02-19T14:35:43.595Z,61.34
2023-02-19T14:37:17.014Z,61.01
2023-02-19T14:38:53.119Z,59.24
2023-02-19T14:40:30.956Z,59.98
2023-02-19T14:42:04.963Z,57.59
2023-02-19T14:43:36.777Z,59.17
2023-02-19T14:45:09.208Z,58.71
2023-02-19T14:46:45.238Z,58.66
2023-02-19T14:48:19.716Z,59.00
2023-02-19T14:49:52.333Z,58.78
2023-02-19T14:51:28.434Z,59.53
2023-02-19T14:53:00.988Z,59.04
2023-02-19T14:54:45.007Z,59.63
2023-02-19T14:56:21.561Z,60.36
2023-02-19T14:57:54.321Z,59.47
2023-02-19T14:59:27.330Z,60.34
2023-02-19T15:00:59.081Z,60.90
2023-02-19T15:02:31.441Z,61.41
2023-02-19T15:04:03.179Z,60.93
2023-02-19T15:05:38.646Z,62.22
2023-02-19T15:07:11.561Z,62.21
2023-02-19T15:08:45.096Z,62.44
2023-02-19T15:10:18.780Z,62.09
2023-02-19T15:11:51.795Z,63.72
2023-02-19T15:13:25.716Z,64.17
2023-02-19T15:14:59.512Z,64.46
2023-02-19T15:16:32.402Z,65.31
2023-02-19T15:18:04.302Z,65.57
2023-02-19T15:19:42.246Z,65.42
2023-02-19T15:21:23.319Z,66.22
2023-02-19T15:22:55.130Z,66.15
2023-02-19T15:24:28.254Z,65.84
2023-02-19T15:26:00.480Z,67.11
2023-02-19T15:27:40.485Z,66.31
2023-02-19T15:29:13.169Z,66.56
2023-02-19T15:30:44.948Z,66.96
2023-02-19T15:32:17.375Z,66.69
2023-02-19T15:33:51.805Z,66.61
2023-02-19T15:35:25.223Z,65.75
2023-02-19T15:36:58.680Z,67.16
2023-02-19T15:38:30.603Z,66.40
2023-02-19T15:40:07.270Z,66.60
2023-02-19T15:41:42.872Z,66.49
2023-02-19T15:43:20.963Z,66.68
2023-02-19T15:44:53.559Z,67.04
2023-02-19T15:46:25.367Z,67.53
2023-02-19T15:47:58.594Z,67.81
2023-02-19T15:49:36.003Z,67.96
2023-02-19T15:51:10.338Z,67.51
2023-02-19T15:52:48.427Z,67.89
2023-02-19T15:54:22.283Z,67.56
2023-02-19T15:56:01.052Z,68.00
2023-02-19T15:57:35.738Z,68.51
2023-02-19T15:59:14.967Z,68.54
2023-02-19T16:00:47.265Z,68.64
2023-02-19T16:02:18.913Z,68.14
2023-02-19T16:03:50.563Z,68.78
2023-02-19T16:05:25.651Z,68.45
2023-02-19T16:06:58.338Z,67.95
2023-02-19T16:08:31.633Z,67.83
2023-02-19T16:10:22.165Z,68.36
2023-02-19T16:11:54.395Z,68.74
2023-02-19T16:13:27.317Z,69.31
2023-02-19T16:15:00.293Z,69.79
2023-02-19T16:16:35.357Z,69.67
2023-02-19T16:18:14.258Z,69.67
2023-02-19T16:19:49.581Z,70.30
2023-02-19T16:21:23.744Z,70.62
2023-02-19T16:23:00.301Z,70.62
2023-02-19T16:24:33.062Z,69.91
2023-02-19T16:26:05.401Z,70.44
2023-02-19T16:27:38.583Z,70.12
2023-02-19T16:29:19.813Z,69.91
2023-02-19T16:31:15.050Z,69.47
2023-02-19T16:32:53.469Z,68.83
2023-02-19T16:34:45.756Z,68.89
2023-02-19T16:36:39.863Z,68.52
2023-02-19T16:38:17.129Z,68.18
2023-02-19T16:39:56.590Z,67.72
2023-02-19T16:41:28.561Z,68.31
2023-02-19T16:43:28.072Z,67.90
2023-02-19T16:45:02.599Z,68.00
2023-02-19T16:46:35.868Z,67.95
2023-02-19T16:48:07.602Z,68.31
2023-02-19T16:49:42.422Z,68.41
2023-02-19T16:51:17.197Z,68.51
2023-02-19T16:52:55.307Z,68.72
2023-02-19T16:54:26.994Z,67.32
2023-02-19T16:55:59.769Z,67.44
2023-02-19T16:57:31.510Z,67.79
2023-02-19T16:59:03.925Z,67.36
2023-02-19T17:00:47.271Z,67.89
2023-02-19T17:02:59.128Z,67.66
2023-02-19T17:04:47.091Z,67.91
2023-02-19T17:06:21.889Z,67.82
2023-02-19T17:07:53.613Z,67.64
2023-02-19T17:11:58.052Z,67.68
2023-02-19T17:13:30.856Z,68.63
2023-02-19T17:15:02.505Z,67.89
2023-02-19T17:16:39.910Z,68.17
2023-02-19T17:18:12.060Z,67.98
2023-02-19T17:19:45.091Z,67.55
2023-02-19T17:21:18.086Z,68.77
2023-02-19T17:22:49.818Z,68.08
2023-02-19T17:24:21.430Z,68.66
2023-02-19T17:25:53.141Z,68.40
2023-02-19T17:27:24.825Z,68.62
2023-02-19T17:28:56.739Z,68.93
2023-02-19T17:30:29.341Z,68.80
2023-02-19T17:32:01.219Z,68.28
2023-02-19T17:33:32.981Z,69.08
2023-02-19T17:35:06.856Z,68.55
2023-02-19T17:36:38.760Z,68.36
2023-02-19T17:38:11.839Z,68.16
2023-02-19T17:39:43.490Z,68.93
2023-02-19T17:41:15.241Z,68.96
2023-02-19T17:42:46.895Z,69.32
2023-02-19T17:44:18.890Z,68.96
2023-02-19T17:45:50.614Z,68.97
2023-02-19T17:47:22.345Z,68.56
2023-02-19T17:48:57.107Z,68.85
2023-02-19T17:50:31.307Z,68.68
2023-02-19T17:52:03.010Z,69.64
2023-02-19T17:53:34.720Z,68.51
2023-02-19T17:55:06.808Z,68.19
2023-02-19T17:56:43.240Z,68.22
2023-02-19T17:58:15.154Z,67.93
2023-02-19T17:59:46.913Z,68.82
2023-02-19T18:01:18.700Z,68.46
2023-02-19T18:02:50.471Z,68.41
2023-02-19T18:04:22.161Z,68.83
2023-02-19T18:05:55.328Z,69.06
2023-02-19T18:07:27.003Z,68.93
2023-02-19T18:08:58.674Z,69.44
2023-02-19T18:10:30.542Z,69.94
2023-02-19T18:12:05.662Z,70.35
2023-02-19T18:13:37.278Z,69.53
2023-02-19T18:15:11.268Z,70.28
2023-02-19T18:16:49.403Z,70.35
2023-02-19T18:18:24.144Z,70.74
2023-02-19T18:19:55.889Z,70.59
2023-02-19T18:21:28.950Z,70.44
2023-02-19T18:23:01.172Z,70.89
2023-02-19T18:24:32.813Z,70.69
2023-02-19T18:26:07.070Z,70.99
2023-02-19T18:27:38.737Z,70.46
2023-02-19T18:29:10.466Z,70.20
2023-02-19T18:30:42.206Z,70.29
2023-02-19T18:32:13.925Z,70.46
2023-02-19T18:33:45.662Z,70.12
2023-02-19T18:35:17.757Z,69.95
2023-02-19T18:36:51.187Z,69.97
2023-02-19T18:38:22.817Z,69.52
2023-02-19T18:40:22.008Z,70.35
2023-02-19T18:41:54.117Z,70.31
2023-02-19T18:43:25.898Z,69.98
2023-02-19T18:45:00.104Z,70.74
2023-02-19T18:46:32.368Z,70.27
2023-02-19T18:48:04.586Z,70.70
2023-02-19T18:49:37.184Z,70.71
2023-02-19T18:51:09.753Z,71.23
2023-02-19T18:52:44.228Z,71.30
2023-02-19T18:54:15.949Z,71.07
2023-02-19T18:55:47.628Z,71.12
2023-02-19T18:57:19.431Z,70.98
2023-02-19T18:58:51.072Z,70.91
2023-02-19T19:00:25.466Z,71.26
2023-02-19T19:01:57.165Z,71.01
2023-02-19T19:03:29.687Z,71.28
2023-02-19T19:05:01.527Z,71.26
2023-02-19T19:06:33.290Z,71.86
2023-02-19T19:08:06.961Z,71.82
2023-02-19T19:09:38.644Z,72.00
2023-02-19T19:11:10.828Z,71.56
2023-02-19T19:12:43.137Z,71.53
2023-02-19T19:14:14.807Z,71.16
2023-02-19T19:15:49.826Z,71.51
2023-02-19T19:17:21.758Z,71.56
2023-02-19T19:18:53.676Z,71.85
2023-02-19T19:20:25.585Z,71.68
2023-02-19T19:21:57.658Z,72.36
2023-02-19T19:23:31.050Z,72.50
2023-02-19T19:25:02.888Z,72.07
2023-02-19T19:26:34.630Z,72.80
2023-02-19T19:28:06.590Z,72.63
2023-02-19T19:29:38.284Z,72.77
2023-02-19T19:31:10.852Z,72.72
2023-02-19T19:32:43.008Z,72.29
2023-02-19T19:34:14.701Z,72.50
2023-02-19T19:35:46.387Z,72.65
2023-02-19T19:37:18.084Z,71.89
2023-02-19T19:38:52.162Z,71.79
2023-02-19T19:40:23.925Z,72.45
2023-02-19T19:41:55.942Z,72.42
2023-02-19T19:43:28.100Z,71.87
2023-02-19T19:45:04.219Z,72.06
2023-02-19T19:46:42.442Z,72.99
2023-02-19T19:48:14.321Z,72.52
2023-02-19T19:49:47.595Z,72.20
2023-02-19T19:51:19.625Z,70.94
2023-02-19T19:52:51.688Z,71.78
2023-02-19T19:54:27.558Z,72.52
2023-02-19T19:56:00.380Z,71.52
2023-02-19T19:57:32.106Z,72.19
2023-02-19T19:59:04.065Z,72.74
2023-02-19T20:00:35.919Z,72.72
2023-02-19T20:02:07.862Z,72.88
2023-02-19T20:03:40.456Z,72.20
2023-02-19T20:05:15.487Z,72.97
2023-02-19T20:06:47.396Z,71.98
2023-02-19T20:08:19.168Z,71.66
2023-02-19T20:09:54.875Z,72.83
2023-02-19T20:11:27.113Z,71.92
2023-02-19T20:13:00.374Z,71.71
2023-02-19T20:14:32.120Z,72.28
2023-02-19T20:16:04.542Z,72.50
2023-02-19T20:17:36.666Z,72.76
2023-02-19T20:19:08.433Z,72.49
2023-02-19T20:20:42.998Z,72.90
2023-02-19T20:22:14.856Z,73.94
2023-02-19T20:23:46.620Z,73.05
2023-02-19T20:25:22.990Z,72.79
2023-02-19T20:26:58.436Z,73.29
2023-02-19T20:28:30.616Z,73.17
2023-02-19T20:30:02.372Z,72.77
2023-02-19T20:31:36.827Z,73.85
2023-02-19T20:33:14.362Z,73.33
2023-02-19T20:34:46.069Z,73.14